San Rafael, CA

8:32 AM PDT on May 03, 2015 (GMT -0700)
King Mountain | | Change Station
CLOSE
Current Station
Personal Weather Station
Location: Larkspur, CA
Elevation: 460 ft
Nearby Weather Stations

Elev 460 ft 37.93 °N, 122.55 °W | Updated 9 minutes ago

Overcast
Overcast
48.8 °F
Feels Like 49 °F
N
0.0
Wind Variable Wind from WSW

Today
High -- | Low -- °F
--% Chance of Precip.
Yesterday
High -- | Low -- °F
Precip. -- in
6:11 AM 8:02 PM
Full, 100% visible
Pressure 29.91 in
Visibility 10.0 miles
Clouds Overcast 600 ft
Windchill 49 °F
Dew Point 46 °F
Humidity 89%
Rainfall 0.00 in
Snow Depth Not available.
UV 1 out of 12
Pollen 5.80 out of 12
Air Quality Not available.
Flu Activity Sporadic
METAR KO69 031515Z AUTO 33003KT 10SM OVC006 10/09 A2991 RMK AO1

More Conditions Fewer Conditions

Pressure 29.91 in
Visibility 10.0 miles
Clouds Overcast 600 ft
Windchill 49 °F
Dew Point 46 °F
Humidity 89%
Rainfall 0.00 in
Snow Depth Not available.
UV 1 out of 12
Pollen 5.80 out of 12
Air Quality Not available.
Flu Activity Sporadic
METAR KO69 031515Z AUTO 33003KT 10SM OVC006 10/09 A2991 RMK AO1

More Conditions Fewer Conditions

Nepal has a long way to go to dig out and rebuild from a devastating earthquake. We have teamed up with several charities and organizations to make contributing to the relief effort as easy as possible.
How you can help: Portlight Strategies | Red Cross

10-Day Weather Forecast

Almanac

Astronomy

May. 03, 2015 Rise Set
Actual Time
Civil Twilight
Nautical Twilight
Astronomical Twilight
Moon
Length of Visible Light
Length of Day
Tomorrow will be .
, % of the Moon is Illuminated

Today's Extremes

State Highs State Lows

Community

WunderPhotos

Upload Photos

1,818,255 photos uploaded!

WunderBlogs® & News

Nearby

Air Quality

  Air Quality AQ Index Pollutant
Not available.

Snow Depth

Station Depth Elevation

Earthquake Activity

City Distance Mag. Time & Date
Minimum magnitude displayed is 2.5.

Coastal Water Temperatures

Place Temperature

Stations

Nearby Weather Stations

Station Location Temp. Windchill Dew Point Humidity Wind Precip. Elev Updated Type